Terminal Aerodrome Forecast
Issued by NWS

Home | Current Version | Previous Version | Text Only | Print | Product List | Glossary On
Versions: 1 2 3 4 5 6 7 8 9 10 11 12 13 14 15 16
000
FTUS41 KBTV 290537
TAFMPV
TAF
KMPV 290537Z 2906/3006 15007KT P6SM BKN070
     FM291400 15011G18KT P6SM VCSH BKN050
     FM291500 15012G20KT P6SM -SHRA OVC070
     FM291700 14012G20KT P6SM -SHRA OVC025
     FM292300 15009KT P6SM VCSH BKN025=

USA.gov is the U.S. government's official web portal to all federal, state and local government web resources and services.